KAXS/AXS METAR and TAF weather

Enter ICAO airport designator
Station Type Date Time Source
KAXS METAR 2018/01/19 17:15 UTC NOAA

KAXS 191715Z AUTO 19011KT 10SM CLR 09/M06 A3004 RMK AO2 T00891064


Station Type Date Time Source
KAXS Decoded METAR 2018/01/19 17:15 UTC NOAA

Altus, Altus/Quartz Mountain Regional Airport, OK, United States (KAXS) 34-41-55N 099-20-17W
Jan 19, 2018 - 12:15 PM EST / 2018.01.19 1715 UTC
Wind: from the S (190 degrees) at 13 MPH (11 KT):0
Visibility: 10 mile(s):0
Sky conditions: clear
Temperature: 48.0 F (8.9 C)
Dew Point: 20.5 F (-6.4 C)
Relative Humidity: 33%
Pressure (altimeter): 30.04 in. Hg (1017 hPa)
ob: KAXS 191715Z AUTO 19011KT 10SM CLR 09/M06 A3004 RMK AO2 T00891064
cycle: 17

Station Type Date Time Source
KAXS TAF UTC NOAA

Error!


Example: see airport list